Time;durP1;ratioP1;P1;durP2;ratioP2;P2;SDS_P1;SDS_P2;PMS_P1;PMS_P2;Temp;Humidity;BMP_temperature;BMP_pressure;BME280_temperature;BME280_humidity;BME280_pressure;Samples;Min_cycle;Max_cycle;Signal;HPM_P1;HPM_P2
2023/04/07 00:01:38;;;;;;;78.00;34.67;;;9.10;99.90;;;;;;5042442;28;20201;-82
2023/04/07 00:04:05;;;;;;;75.47;34.10;;;9.10;99.90;;;;;;5024715;28;20217;-82
2023/04/07 00:06:33;;;;;;;80.60;35.07;;;9.10;99.90;;;;;;5026918;28;20635;-83
2023/04/07 00:09:00;;;;;;;83.47;35.43;;;9.10;99.90;;;;;;5039014;28;20293;-82
2023/04/07 00:11:27;;;;;;;90.00;36.27;;;9.20;99.90;;;;;;5043238;28;20304;-81
2023/04/07 00:13:54;;;;;;;96.60;36.30;;;9.10;99.90;;;;;;5043364;28;20241;-83
2023/04/07 00:16:21;;;;;;;87.13;36.77;;;9.20;99.90;;;;;;5042698;28;20550;-82
2023/04/07 00:18:48;;;;;;;92.80;38.00;;;9.20;99.90;;;;;;5045094;28;20249;-82
2023/04/07 00:21:15;;;;;;;94.47;38.13;;;9.20;99.90;;;;;;5026375;28;20202;-83
2023/04/07 00:23:42;;;;;;;98.00;39.13;;;9.10;99.90;;;;;;5042498;28;20241;-81
2023/04/07 00:26:09;;;;;;;110.17;40.27;;;9.10;99.90;;;;;;5041698;28;20659;-82
2023/04/07 00:28:36;;;;;;;99.60;37.90;;;9.20;99.90;;;;;;5045105;28;20213;-82
2023/04/07 00:31:03;;;;;;;105.33;38.43;;;9.10;99.90;;;;;;5044550;28;20298;-81
2023/04/07 00:33:30;;;;;;;99.97;37.93;;;9.20;99.90;;;;;;5024838;28;20265;-82
2023/04/07 00:35:57;;;;;;;86.80;36.10;;;9.20;99.90;;;;;;5044311;28;20617;-82
2023/04/07 00:38:24;;;;;;;111.63;39.30;;;9.20;99.90;;;;;;5044084;28;20557;-84
2023/04/07 00:40:57;;;;;;;120.63;38.10;;;9.20;99.90;;;;;;5042595;28;20245;-81
2023/04/07 00:43:24;;;;;;;89.07;34.33;;;9.20;99.90;;;;;;5042564;28;20287;-82
2023/04/07 00:45:52;;;;;;;86.70;32.13;;;9.20;99.90;;;;;;5042083;28;20201;-82
2023/04/07 00:48:20;;;;;;;68.07;29.73;;;9.10;99.90;;;;;;5031376;28;20222;-82
2023/04/07 00:50:46;;;;;;;78.57;31.23;;;9.10;99.90;;;;;;5043155;28;20239;-81
2023/04/07 00:53:14;;;;;;;79.97;30.40;;;9.10;99.90;;;;;;5042454;28;20327;-81
2023/04/07 00:55:42;;;;;;;76.37;30.67;;;9.10;99.90;;;;;;5042686;28;20210;-82
2023/04/07 00:58:08;;;;;;;70.43;28.57;;;9.00;99.90;;;;;;5028844;28;20261;-82
2023/04/07 01:00:44;;;;;;;62.47;25.57;;;9.00;99.90;;;;;;5041436;28;20226;-82
2023/04/07 01:03:31;;;;;;;54.33;24.17;;;9.00;99.90;;;;;;5042601;28;20342;-81
2023/04/07 01:06:04;;;;;;;50.77;22.40;;;9.00;99.90;;;;;;5050964;28;20541;-82
2023/04/07 01:09:02;;;;;;;49.37;20.23;;;9.00;99.90;;;;;;5028941;28;20209;-82
2023/04/07 01:11:41;;;;;;;42.27;17.77;;;9.00;99.90;;;;;;5042423;28;20562;-82
2023/04/07 01:14:12;;;;;;;33.10;14.63;;;9.10;99.90;;;;;;5041329;28;20664;-83
2023/04/07 01:16:47;;;;;;;19.57;10.70;;;9.00;99.90;;;;;;5039747;28;20240;-82
2023/04/07 01:19:32;;;;;;;26.67;10.80;;;9.00;99.90;;;;;;5029593;28;20267;-82
2023/04/07 01:22:00;;;;;;;24.67;10.83;;;8.90;99.90;;;;;;5044064;28;20279;-82
2023/04/07 01:24:59;;;;;;;28.30;9.70;;;8.90;99.90;;;;;;5041548;28;20284;-82
2023/04/07 01:28:02;;;;;;;24.53;9.40;;;8.90;99.90;;;;;;5047031;28;20670;-81
2023/04/07 01:30:32;;;;;;;20.23;8.63;;;8.90;99.90;;;;;;5040801;28;20205;-82
2023/04/07 01:33:00;;;;;;;19.10;8.93;;;9.00;99.90;;;;;;5043554;28;20231;-83
2023/04/07 01:35:31;;;;;;;21.37;8.90;;;8.90;99.90;;;;;;5041027;28;20202;-83
2023/04/07 01:37:59;;;;;;;21.20;9.23;;;8.90;99.90;;;;;;5042011;28;20637;-81
2023/04/07 01:40:28;;;;;;;26.33;10.17;;;8.90;99.90;;;;;;5042437;28;21224;-82
2023/04/07 01:42:56;;;;;;;25.53;9.53;;;9.00;99.90;;;;;;5041905;28;20203;-82
2023/04/07 01:45:29;;;;;;;23.87;9.67;;;8.90;99.90;;;;;;5039118;28;20324;-82
2023/04/07 01:47:56;;;;;;;22.13;9.27;;;8.90;99.90;;;;;;5046235;28;20300;-81
2023/04/07 01:50:24;;;;;;;21.17;9.17;;;8.90;99.90;;;;;;5038745;28;20210;-81
2023/04/07 01:52:52;;;;;;;24.03;10.17;;;8.90;99.90;;;;;;5041261;28;20299;-81
2023/04/07 01:55:20;;;;;;;26.73;9.97;;;9.00;99.90;;;;;;5040697;28;20206;-82
2023/04/07 01:57:46;;;;;;;21.07;9.83;;;9.00;99.90;;;;;;5023793;28;20205;-83
2023/04/07 02:00:13;;;;;;;24.80;9.90;;;9.00;99.90;;;;;;5042098;28;20193;-82
2023/04/07 02:02:43;;;;;;;27.67;10.27;;;9.00;99.90;;;;;;5030308;28;20280;-84
2023/04/07 02:05:13;;;;;;;23.77;9.87;;;9.20;99.90;;;;;;5027279;28;20274;-82
2023/04/07 02:07:50;;;;;;;21.83;10.63;;;9.00;99.90;;;;;;5039855;28;20293;-82
2023/04/07 02:10:22;;;;;;;23.50;9.67;;;9.00;99.90;;;;;;5022586;28;20201;-82
2023/04/07 02:12:49;;;;;;;22.13;10.00;;;9.00;99.90;;;;;;5038379;28;20197;-81
2023/04/07 02:15:17;;;;;;;24.07;10.53;;;8.90;99.90;;;;;;5041240;28;20237;-80
2023/04/07 02:17:50;;;;;;;20.93;10.70;;;8.90;99.90;;;;;;5044081;28;20224;-82
2023/04/07 02:20:21;;;;;;;25.47;10.73;;;8.90;99.90;;;;;;5042267;28;20217;-81
2023/04/07 02:22:48;;;;;;;27.37;10.87;;;8.90;99.90;;;;;;5040357;28;20740;-82
2023/04/07 02:25:34;;;;;;;28.73;11.03;;;8.90;99.90;;;;;;5030629;28;20268;-83
2023/04/07 02:28:01;;;;;;;27.70;10.53;;;8.90;99.90;;;;;;5043734;28;20263;-81
2023/04/07 02:30:27;;;;;;;27.73;11.17;;;8.80;99.90;;;;;;5042835;28;20202;-82
2023/04/07 02:32:55;;;;;;;33.67;11.53;;;8.90;99.90;;;;;;5041323;28;20217;-82
2023/04/07 02:35:22;;;;;;;32.40;13.37;;;8.90;99.90;;;;;;5039815;28;20241;-82
2023/04/07 02:37:49;;;;;;;34.20;11.93;;;8.90;99.90;;;;;;5041916;28;20250;-83
2023/04/07 02:40:16;;;;;;;37.40;12.00;;;8.90;99.90;;;;;;5042294;28;20217;-82
2023/04/07 02:42:43;;;;;;;33.97;12.07;;;8.90;99.90;;;;;;5037926;28;20220;-82
2023/04/07 02:45:11;;;;;;;33.93;12.43;;;8.90;99.90;;;;;;5023358;28;20292;-81
2023/04/07 02:47:38;;;;;;;37.20;13.30;;;8.90;99.90;;;;;;5042969;28;20211;-81
2023/04/07 02:50:06;;;;;;;30.53;12.63;;;8.90;99.90;;;;;;5043073;28;20284;-82
2023/04/07 02:52:33;;;;;;;36.73;12.97;;;8.90;99.90;;;;;;5041822;28;20237;-82
2023/04/07 02:55:00;;;;;;;30.30;11.30;;;8.90;99.90;;;;;;5038586;28;20240;-81
2023/04/07 02:57:26;;;;;;;34.17;13.20;;;8.90;99.90;;;;;;5042207;28;20256;-82
2023/04/07 02:59:55;;;;;;;39.80;13.47;;;8.80;99.90;;;;;;5045051;28;20229;-82
2023/04/07 03:02:24;;;;;;;40.60;13.90;;;8.90;99.90;;;;;;5049159;28;20216;-85
2023/04/07 03:04:54;;;;;;;31.63;12.90;;;8.90;99.90;;;;;;5042055;28;20216;-81
2023/04/07 03:07:21;;;;;;;32.87;13.30;;;8.90;99.90;;;;;;5039092;28;20209;-80
2023/04/07 03:09:48;;;;;;;36.80;13.20;;;8.90;99.90;;;;;;5025828;28;20294;-83
2023/04/07 03:12:15;;;;;;;28.63;12.97;;;8.90;99.90;;;;;;5044224;28;20214;-81
2023/04/07 03:14:42;;;;;;;35.63;13.77;;;8.80;99.90;;;;;;5045654;28;20264;-81
2023/04/07 03:17:09;;;;;;;30.60;13.27;;;8.90;99.90;;;;;;5043344;28;20205;-83
2023/04/07 03:19:36;;;;;;;33.13;12.63;;;8.90;99.90;;;;;;5062328;28;20233;-83
2023/04/07 03:22:03;;;;;;;38.37;14.63;;;8.90;99.90;;;;;;5041099;28;20268;-84
2023/04/07 03:24:30;;;;;;;31.90;13.90;;;8.90;99.90;;;;;;5045007;28;20614;-83
2023/04/07 03:26:57;;;;;;;31.63;12.90;;;8.90;99.90;;;;;;5043495;28;20213;-85
2023/04/07 03:29:24;;;;;;;35.63;13.33;;;8.90;99.90;;;;;;5044921;28;20212;-82
2023/04/07 03:31:50;;;;;;;34.47;13.77;;;8.90;99.90;;;;;;5025036;28;20219;-83
2023/04/07 03:34:18;;;;;;;32.17;12.70;;;8.90;99.90;;;;;;5044349;28;20343;-82
2023/04/07 03:36:45;;;;;;;35.53;12.80;;;8.90;99.90;;;;;;5034756;28;20206;-83
2023/04/07 03:39:12;;;;;;;31.17;11.50;;;8.90;99.90;;;;;;5027272;28;20209;-81
2023/04/07 03:41:39;;;;;;;37.90;13.73;;;8.90;99.90;;;;;;5040006;28;20202;-82
2023/04/07 03:44:05;;;;;;;38.30;12.67;;;8.90;99.90;;;;;;5041378;28;20295;-83
2023/04/07 03:46:32;;;;;;;33.23;12.87;;;8.90;99.90;;;;;;5044665;28;20709;-81
2023/04/07 03:48:59;;;;;;;34.90;13.33;;;8.90;99.90;;;;;;5045050;28;20558;-82
2023/04/07 03:51:26;;;;;;;24.87;11.93;;;8.90;99.90;;;;;;5027006;28;20296;-81
2023/04/07 03:53:53;;;;;;;32.93;12.47;;;8.90;99.90;;;;;;5040602;28;20226;-82
2023/04/07 03:56:21;;;;;;;43.57;13.70;;;8.90;99.90;;;;;;5043182;28;20205;-81
2023/04/07 03:58:48;;;;;;;31.87;12.83;;;8.90;99.90;;;;;;5041579;28;20692;-82
2023/04/07 04:01:15;;;;;;;33.03;12.43;;;8.90;99.90;;;;;;5044328;28;20298;-82
2023/04/07 04:03:41;;;;;;;33.33;12.57;;;9.00;99.90;;;;;;5042409;28;20248;-81
2023/04/07 04:06:09;;;;;;;33.77;12.70;;;9.00;99.90;;;;;;5051363;28;20205;-82
2023/04/07 04:08:35;;;;;;;32.77;12.43;;;9.00;99.90;;;;;;5030162;28;20201;-82
2023/04/07 04:11:02;;;;;;;35.87;12.27;;;9.00;99.90;;;;;;5042673;28;20240;-82
2023/04/07 04:13:29;;;;;;;32.20;12.50;;;9.00;99.90;;;;;;5025902;28;20212;-81
2023/04/07 04:15:56;;;;;;;25.27;11.77;;;9.10;99.90;;;;;;5041845;28;20211;-81
2023/04/07 04:18:23;;;;;;;27.97;11.30;;;9.00;99.90;;;;;;5043438;28;20286;-81
2023/04/07 04:20:49;;;;;;;32.17;11.67;;;9.00;99.90;;;;;;5022086;28;20677;-82
2023/04/07 04:23:16;;;;;;;32.37;11.30;;;9.10;99.90;;;;;;5044214;28;20225;-80
2023/04/07 04:25:43;;;;;;;26.50;11.50;;;9.10;99.90;;;;;;5042570;28;20280;-80
2023/04/07 04:28:10;;;;;;;34.17;11.97;;;9.10;99.90;;;;;;5046577;28;20292;-79
2023/04/07 04:30:36;;;;;;;33.00;12.10;;;9.40;99.90;;;;;;5045259;28;20633;-79
2023/04/07 04:33:03;;;;;;;32.50;12.37;;;9.10;99.90;;;;;;5040276;28;20267;-81
2023/04/07 04:35:30;;;;;;;27.83;11.03;;;9.00;99.90;;;;;;5043887;28;20222;-80
2023/04/07 04:37:57;;;;;;;25.77;11.50;;;9.10;99.90;;;;;;5040994;28;20233;-81
2023/04/07 04:40:23;;;;;;;31.60;11.80;;;9.00;99.90;;;;;;5043579;28;20292;-79
2023/04/07 04:42:50;;;;;;;34.17;12.23;;;9.10;99.90;;;;;;5041050;28;20206;-81
2023/04/07 04:45:17;;;;;;;33.70;12.73;;;9.00;99.90;;;;;;5042431;28;20327;-81
2023/04/07 04:47:44;;;;;;;43.00;13.47;;;9.00;99.90;;;;;;5042680;28;20480;-80
2023/04/07 04:50:11;;;;;;;34.43;12.87;;;9.00;99.90;;;;;;5044318;28;20208;-79
2023/04/07 04:52:39;;;;;;;34.90;12.03;;;9.00;99.90;;;;;;5040620;28;20256;-82
2023/04/07 04:55:07;;;;;;;35.60;13.87;;;9.00;99.90;;;;;;5043869;28;20224;-80
2023/04/07 04:57:34;;;;;;;31.80;12.87;;;9.10;99.90;;;;;;5041894;28;20210;-83
2023/04/07 05:00:03;;;;;;;34.77;13.70;;;9.00;99.90;;;;;;5042274;28;20279;-80
2023/04/07 05:02:30;;;;;;;34.63;13.37;;;9.00;99.90;;;;;;5025966;28;20291;-83
2023/04/07 05:04:57;;;;;;;29.03;12.17;;;9.00;99.90;;;;;;5047290;28;20196;-81
2023/04/07 05:07:24;;;;;;;36.33;12.40;;;9.10;99.90;;;;;;5046386;28;20205;-80
2023/04/07 05:09:51;;;;;;;36.47;13.37;;;9.10;99.90;;;;;;5046574;28;20703;-80
2023/04/07 05:12:18;;;;;;;39.70;12.57;;;9.10;99.90;;;;;;5044393;28;20576;-80
2023/04/07 05:14:45;;;;;;;35.40;11.93;;;9.30;99.90;;;;;;5046169;28;20232;-80
2023/04/07 05:17:12;;;;;;;35.17;12.77;;;9.10;99.90;;;;;;5044255;28;20259;-81
2023/04/07 05:19:39;;;;;;;31.87;12.87;;;9.10;99.90;;;;;;5046454;28;20294;-83
2023/04/07 05:22:06;;;;;;;34.93;12.53;;;9.10;99.90;;;;;;5045377;28;20245;-80
2023/04/07 05:24:32;;;;;;;33.13;12.73;;;9.10;99.90;;;;;;5049346;28;20284;-81
2023/04/07 05:27:00;;;;;;;36.30;12.20;;;9.30;99.90;;;;;;5045690;28;20646;-81
2023/04/07 05:29:28;;;;;;;30.03;12.30;;;9.10;99.90;;;;;;5050197;28;20205;-82
2023/04/07 05:31:55;;;;;;;30.27;12.37;;;9.20;99.90;;;;;;5042744;28;20201;-81
2023/04/07 05:34:22;;;;;;;27.67;12.13;;;9.00;99.90;;;;;;5037568;28;20243;-81
2023/04/07 05:36:49;;;;;;;26.70;11.47;;;9.00;99.90;;;;;;5054855;28;20205;-82
2023/04/07 05:39:15;;;;;;;30.70;11.57;;;9.00;99.90;;;;;;5054713;28;20213;-82
2023/04/07 05:41:42;;;;;;;26.57;10.97;;;9.10;99.90;;;;;;5029166;28;20301;-81
2023/04/07 05:44:09;;;;;;;30.87;11.67;;;9.10;99.90;;;;;;5040202;28;20209;-80
2023/04/07 05:46:36;;;;;;;31.17;12.10;;;9.20;99.90;;;;;;5046082;28;20281;-80
2023/04/07 05:49:03;;;;;;;25.43;10.53;;;9.00;99.90;;;;;;5047748;28;20243;-82
2023/04/07 05:51:44;;;;;;;27.97;10.93;;;9.00;99.90;;;;;;5045965;28;20205;-82
2023/04/07 05:54:13;;;;;;;22.70;10.83;;;9.00;99.90;;;;;;5045187;28;20262;-84
2023/04/07 05:56:40;;;;;;;26.10;11.60;;;9.00;99.90;;;;;;5039457;28;20603;-81
2023/04/07 05:59:07;;;;;;;31.33;11.13;;;9.00;99.90;;;;;;5040886;28;20212;-82
2023/04/07 06:01:34;;;;;;;29.67;11.23;;;9.00;99.90;;;;;;5027750;28;20220;-83
2023/04/07 06:04:02;;;;;;;32.30;11.37;;;9.10;99.90;;;;;;5048094;28;20232;-83
2023/04/07 06:06:30;;;;;;;22.20;10.47;;;9.10;99.90;;;;;;5048757;28;20194;-82
2023/04/07 06:08:57;;;;;;;23.40;10.47;;;9.10;99.90;;;;;;5028315;28;20658;-81
2023/04/07 06:11:25;;;;;;;29.03;11.20;;;9.20;99.90;;;;;;5049928;28;20239;-82
2023/04/07 06:13:51;;;;;;;27.57;11.37;;;9.20;99.90;;;;;;5055150;28;20243;-82
2023/04/07 06:16:18;;;;;;;24.87;10.90;;;9.20;99.90;;;;;;5047972;28;20208;-81
2023/04/07 06:18:45;;;;;;;25.10;11.10;;;9.30;99.90;;;;;;5048267;28;20785;-82
2023/04/07 06:21:13;;;;;;;21.07;10.27;;;9.40;99.90;;;;;;5035892;28;20677;-83
2023/04/07 06:23:39;;;;;;;25.43;10.23;;;9.40;99.90;;;;;;5045045;28;20299;-83
2023/04/07 06:26:10;;;;;;;24.10;10.17;;;9.40;99.90;;;;;;5040751;28;20297;-83
2023/04/07 06:28:38;;;;;;;22.20;9.77;;;9.50;99.90;;;;;;5043641;28;20356;-81
2023/04/07 06:31:05;;;;;;;22.10;9.03;;;9.50;99.90;;;;;;5056415;28;20306;-83
2023/04/07 06:33:32;;;;;;;23.47;9.17;;;9.50;99.90;;;;;;5048744;28;20313;-81
2023/04/07 06:36:01;;;;;;;17.13;9.10;;;9.70;99.90;;;;;;5046860;28;20288;-82
2023/04/07 06:38:28;;;;;;;20.53;8.90;;;9.60;99.90;;;;;;5044894;28;20556;-83
2023/04/07 06:40:55;;;;;;;20.90;9.60;;;9.60;99.90;;;;;;5031625;28;20293;-83
2023/04/07 06:43:22;;;;;;;18.83;9.90;;;9.60;99.90;;;;;;5039466;28;20196;-83
2023/04/07 06:45:49;;;;;;;15.77;8.50;;;9.70;99.90;;;;;;5055905;28;20635;-83
2023/04/07 06:48:16;;;;;;;20.63;9.17;;;9.80;99.90;;;;;;5029553;28;20207;-84
2023/04/07 06:50:48;;;;;;;17.83;8.77;;;9.90;99.90;;;;;;5028221;28;20307;-84
2023/04/07 06:53:15;;;;;;;18.33;8.80;;;9.90;99.90;;;;;;5028396;28;20286;-82
2023/04/07 06:55:41;;;;;;;12.77;7.53;;;10.00;99.90;;;;;;5055956;28;20244;-84
2023/04/07 06:58:08;;;;;;;18.37;8.00;;;9.90;99.90;;;;;;5045744;28;20232;-83
2023/04/07 07:00:35;;;;;;;13.87;7.07;;;10.10;99.90;;;;;;5027728;28;20206;-82
2023/04/07 07:03:02;;;;;;;13.20;6.63;;;10.10;99.90;;;;;;5029468;28;20759;-83
2023/04/07 07:05:29;;;;;;;13.60;7.20;;;10.10;99.90;;;;;;5049918;28;20212;-84
2023/04/07 07:07:56;;;;;;;13.20;6.80;;;10.10;99.90;;;;;;5041055;28;20199;-85
2023/04/07 07:10:23;;;;;;;11.97;6.33;;;10.10;99.90;;;;;;5029421;28;20201;-84
2023/04/07 07:12:50;;;;;;;12.63;6.13;;;10.10;99.90;;;;;;5043209;28;20429;-84
2023/04/07 07:15:17;;;;;;;9.83;5.73;;;10.10;99.90;;;;;;5043446;28;20301;-87
2023/04/07 07:17:44;;;;;;;11.03;5.00;;;10.20;99.90;;;;;;5048398;28;20220;-83
2023/04/07 07:20:11;;;;;;;11.53;5.07;;;10.30;99.90;;;;;;5044747;28;20204;-84
2023/04/07 07:22:38;;;;;;;8.20;5.30;;;10.50;99.90;;;;;;5044431;28;20203;-83
2023/04/07 07:25:06;;;;;;;11.07;5.53;;;11.60;99.90;;;;;;5034793;28;20204;-83
2023/04/07 07:27:32;;;;;;;9.80;5.33;;;10.50;99.90;;;;;;5034155;28;20200;-82
2023/04/07 07:29:59;;;;;;;9.23;4.60;;;11.00;99.90;;;;;;5027282;28;20202;-82
2023/04/07 07:32:27;;;;;;;8.83;4.67;;;10.40;99.90;;;;;;5025821;28;20735;-83
2023/04/07 07:34:54;;;;;;;8.33;4.77;;;10.30;99.90;;;;;;5030041;28;20271;-83
2023/04/07 07:37:20;;;;;;;10.13;5.57;;;10.20;99.90;;;;;;5030568;28;20235;-81
2023/04/07 07:39:48;;;;;;;6.50;4.53;;;9.90;99.90;;;;;;5027682;28;20253;-82
2023/04/07 07:42:15;;;;;;;10.37;5.07;;;10.20;99.90;;;;;;5023890;28;20316;-84
2023/04/07 07:44:42;;;;;;;10.17;6.13;;;10.80;99.90;;;;;;5028075;28;20613;-84
2023/04/07 07:47:09;;;;;;;9.17;4.87;;;11.20;99.90;;;;;;5046769;28;20260;-83
2023/04/07 07:49:36;;;;;;;9.83;5.33;;;10.10;99.90;;;;;;5043724;28;20200;-83
2023/04/07 07:52:03;;;;;;;8.00;5.90;;;10.30;99.90;;;;;;5026177;28;20273;-82
2023/04/07 07:54:30;;;;;;;8.77;5.47;;;10.30;99.90;;;;;;5054247;28;20211;-83
2023/04/07 07:56:56;;;;;;;11.17;5.73;;;9.60;99.90;;;;;;5064639;28;20600;-83
2023/04/07 07:59:23;;;;;;;7.17;4.70;;;10.40;99.90;;;;;;5061066;28;20684;-82
2023/04/07 08:01:50;;;;;;;6.53;4.40;;;10.50;99.90;;;;;;5034159;28;20223;-82
2023/04/07 08:04:16;;;;;;;7.33;4.53;;;11.30;99.90;;;;;;5048458;28;20308;-84
2023/04/07 08:06:44;;;;;;;6.13;4.30;;;10.50;99.90;;;;;;5040924;28;20270;-83
2023/04/07 08:09:11;;;;;;;7.17;4.10;;;10.70;99.90;;;;;;5065659;28;20205;-84
2023/04/07 08:11:41;;;;;;;7.30;4.03;;;10.50;99.90;;;;;;5058766;28;20208;-82
2023/04/07 08:14:07;;;;;;;7.87;5.00;;;10.50;99.90;;;;;;5047213;28;20208;-83
2023/04/07 08:16:35;;;;;;;4.90;3.57;;;10.50;99.90;;;;;;5048438;28;20712;-84
2023/04/07 08:19:02;;;;;;;6.10;4.17;;;11.40;99.90;;;;;;5033009;28;20572;-83
2023/04/07 08:21:30;;;;;;;7.17;3.87;;;11.30;99.90;;;;;;5044771;28;20247;-83
2023/04/07 08:23:57;;;;;;;6.27;3.97;;;10.30;99.90;;;;;;5048672;28;20197;-84
2023/04/07 08:26:24;;;;;;;6.20;4.10;;;9.80;99.90;;;;;;5052891;28;20685;-82
2023/04/07 08:28:51;;;;;;;10.40;4.10;;;10.40;99.90;;;;;;5033774;28;20705;-82
2023/04/07 08:31:18;;;;;;;5.43;3.70;;;10.40;99.90;;;;;;5051887;28;20262;-82
2023/04/07 08:33:45;;;;;;;5.87;3.60;;;10.40;99.90;;;;;;5048072;28;20205;-83
2023/04/07 08:36:12;;;;;;;5.93;3.50;;;10.40;99.90;;;;;;5048938;28;20332;-84
2023/04/07 08:38:39;;;;;;;7.63;4.00;;;9.60;99.90;;;;;;5053371;28;20270;-85
2023/04/07 08:41:12;;;;;;;9.10;4.73;;;10.40;99.90;;;;;;5042383;28;20764;-84
2023/04/07 08:43:40;;;;;;;6.23;4.23;;;11.20;99.90;;;;;;5051726;28;20239;-83
2023/04/07 08:46:09;;;;;;;7.23;4.10;;;10.70;99.90;;;;;;5046920;28;20299;-84
2023/04/07 08:48:37;;;;;;;7.87;4.23;;;10.40;99.90;;;;;;5046494;28;20238;-84
2023/04/07 08:51:07;;;;;;;4.50;3.70;;;11.20;99.90;;;;;;5045821;28;20227;-84
2023/04/07 08:53:49;;;;;;;7.13;4.60;;;10.60;99.90;;;;;;5029652;28;20213;-84
2023/04/07 08:56:22;;;;;;;7.50;4.70;;;10.70;99.90;;;;;;5029414;28;20298;-84
2023/04/07 08:58:54;;;;;;;5.23;3.60;;;10.70;99.90;;;;;;5030923;28;20235;-83
2023/04/07 09:01:22;;;;;;;6.10;4.00;;;10.70;99.90;;;;;;5034057;28;20220;-84
2023/04/07 09:03:49;;;;;;;8.40;4.40;;;10.70;99.90;;;;;;5044175;28;20222;-83
2023/04/07 09:06:17;;;;;;;5.40;3.50;;;11.10;99.90;;;;;;5026631;28;20217;-86
2023/04/07 09:08:43;;;;;;;2.73;2.33;;;11.00;99.90;;;;;;5041960;28;20233;-83
2023/04/07 09:11:11;;;;;;;5.10;2.83;;;10.90;99.90;;;;;;5032573;28;20527;-83
2023/04/07 09:13:37;;;;;;;4.87;2.30;;;10.90;99.90;;;;;;5038465;28;20706;-84
2023/04/07 09:16:05;;;;;;;2.43;2.23;;;10.90;99.90;;;;;;5020717;28;20231;-83
2023/04/07 09:18:32;;;;;;;3.10;2.60;;;10.90;99.90;;;;;;5030186;28;20582;-84
2023/04/07 09:21:04;;;;;;;4.50;2.30;;;11.00;99.90;;;;;;5040434;28;20742;-83
2023/04/07 09:23:36;;;;;;;3.17;2.20;;;11.00;99.90;;;;;;5040388;28;20209;-85
2023/04/07 09:26:23;;;;;;;4.77;2.90;;;11.00;99.90;;;;;;5032260;28;20310;-81
2023/04/07 09:29:01;;;;;;;3.27;2.77;;;11.10;99.90;;;;;;5040214;28;20231;-83
2023/04/07 09:31:56;;;;;;;4.50;2.90;;;11.30;99.90;;;;;;5043674;28;20197;-85
2023/04/07 09:34:28;;;;;;;3.70;2.60;;;10.70;99.90;;;;;;5027545;28;20588;-83
2023/04/07 09:36:56;;;;;;;4.10;2.43;;;11.00;99.90;;;;;;5026925;28;20319;-82
2023/04/07 09:39:24;;;;;;;3.87;2.40;;;11.40;99.90;;;;;;5041056;28;20673;-83
2023/04/07 09:41:51;;;;;;;4.60;2.90;;;10.90;99.90;;;;;;5041495;28;20620;-85
2023/04/07 09:44:22;;;;;;;3.20;2.30;;;10.90;99.90;;;;;;5043104;28;20204;-83
2023/04/07 09:46:53;;;;;;;5.63;2.67;;;10.90;99.90;;;;;;5040256;28;20219;-82
2023/04/07 09:49:23;;;;;;;4.17;2.70;;;10.60;99.90;;;;;;5029960;28;20270;-82
2023/04/07 09:52:06;;;;;;;3.87;2.53;;;10.80;99.90;;;;;;5032071;28;20229;-83
2023/04/07 09:54:40;;;;;;;3.27;2.40;;;10.90;99.90;;;;;;5032866;28;20577;-83
2023/04/07 09:57:09;;;;;;;3.57;2.30;;;9.90;99.90;;;;;;5040018;28;20324;-82
2023/04/07 09:59:43;;;;;;;2.83;2.30;;;10.90;99.90;;;;;;5040243;28;20205;-82
2023/04/07 10:02:11;;;;;;;2.97;2.67;;;11.00;99.90;;;;;;5042207;28;20259;-83
2023/04/07 10:04:39;;;;;;;4.33;2.87;;;11.20;99.90;;;;;;5043183;28;20292;-83
2023/04/07 10:07:06;;;;;;;4.87;2.63;;;10.80;99.90;;;;;;5044653;28;20300;-83
2023/04/07 10:09:33;;;;;;;3.10;2.80;;;11.40;99.90;;;;;;5024322;28;20252;-83
2023/04/07 10:11:59;;;;;;;5.03;3.00;;;11.70;99.90;;;;;;5024937;28;20263;-85
2023/04/07 10:14:30;;;;;;;3.17;2.67;;;11.60;99.90;;;;;;5007249;28;20209;-83
2023/04/07 10:16:59;;;;;;;4.87;3.20;;;11.70;99.90;;;;;;5041122;28;20229;-82
2023/04/07 10:19:31;;;;;;;4.90;3.83;;;11.70;99.90;;;;;;5030746;28;20276;-83
2023/04/07 10:22:00;;;;;;;3.57;3.23;;;11.70;99.90;;;;;;5042483;28;20252;-83
2023/04/07 10:24:30;;;;;;;4.00;3.43;;;11.70;99.90;;;;;;5042501;28;20204;-83
2023/04/07 10:27:04;;;;;;;5.60;3.40;;;11.60;99.90;;;;;;5021543;28;20690;-82
2023/04/07 10:29:36;;;;;;;3.50;2.73;;;11.70;99.90;;;;;;5042341;28;20201;-83
2023/04/07 10:32:03;;;;;;;5.67;3.30;;;11.70;99.90;;;;;;5024085;28;20248;-83
2023/04/07 10:34:49;;;;;;;3.20;2.90;;;11.60;99.90;;;;;;5041207;28;20563;-84
2023/04/07 10:37:20;;;;;;;4.57;3.50;;;11.60;99.90;;;;;;5039234;28;20333;-84
2023/04/07 10:39:49;;;;;;;6.20;4.60;;;11.60;99.90;;;;;;5029778;28;20278;-84
2023/04/07 10:42:35;;;;;;;6.47;4.03;;;11.40;99.90;;;;;;5043090;28;20232;-84
2023/04/07 10:45:06;;;;;;;6.43;4.40;;;11.50;99.90;;;;;;5046207;28;20206;-84
2023/04/07 10:47:35;;;;;;;7.30;5.30;;;11.40;99.90;;;;;;5044977;28;20260;-85
2023/04/07 10:50:19;;;;;;;7.73;5.40;;;11.40;99.90;;;;;;5030915;28;20288;-84
2023/04/07 10:52:48;;;;;;;8.40;5.20;;;11.40;99.90;;;;;;5030676;28;20288;-86
2023/04/07 10:55:36;;;;;;;6.70;5.03;;;11.40;99.90;;;;;;5032881;28;20205;-85
2023/04/07 10:58:27;;;;;;;13.37;6.53;;;11.60;99.90;;;;;;5024622;28;20251;-85
2023/04/07 11:01:00;;;;;;;12.57;6.23;;;11.60;99.90;;;;;;5041469;28;20237;-85
2023/04/07 11:03:28;;;;;;;11.67;5.73;;;12.00;99.90;;;;;;5020968;28;20221;-85
2023/04/07 11:06:07;;;;;;;8.47;5.30;;;11.70;99.90;;;;;;5042167;28;20225;-84
2023/04/07 11:08:35;;;;;;;12.33;6.70;;;11.80;99.90;;;;;;5039765;28;20232;-85
2023/04/07 11:11:07;;;;;;;8.70;5.50;;;11.80;99.90;;;;;;5022898;28;20609;-84
2023/04/07 11:13:41;;;;;;;13.63;5.90;;;11.90;99.90;;;;;;5041025;28;20259;-83
2023/04/07 11:16:08;;;;;;;7.07;5.20;;;11.90;99.90;;;;;;5040277;28;20316;-83
2023/04/07 11:18:36;;;;;;;8.00;4.90;;;11.90;99.90;;;;;;5020879;28;20236;-83
2023/04/07 11:21:06;;;;;;;7.80;4.97;;;12.30;99.90;;;;;;5025306;28;20264;-81
2023/04/07 11:23:38;;;;;;;8.50;4.77;;;11.80;99.90;;;;;;5036910;28;20209;-82
2023/04/07 11:26:07;;;;;;;10.37;6.00;;;11.70;99.90;;;;;;5027510;28;20214;-83
2023/04/07 11:28:35;;;;;;;6.43;4.40;;;11.60;99.90;;;;;;5024886;28;20276;-81
2023/04/07 11:31:03;;;;;;;9.13;5.50;;;11.70;99.90;;;;;;5028874;28;20476;-82
2023/04/07 11:33:31;;;;;;;8.17;5.03;;;11.70;99.90;;;;;;5022111;28;20226;-81
2023/04/07 11:36:00;;;;;;;9.60;5.10;;;11.10;99.90;;;;;;5037518;28;20234;-83
2023/04/07 11:38:33;;;;;;;10.03;5.33;;;11.60;99.90;;;;;;5023760;28;20233;-85
2023/04/07 11:41:10;;;;;;;9.63;5.17;;;11.70;99.90;;;;;;5026650;28;20655;-82
2023/04/07 11:43:40;;;;;;;13.57;6.07;;;12.00;99.90;;;;;;5021759;28;20289;-83
2023/04/07 11:46:12;;;;;;;10.30;6.57;;;11.60;99.90;;;;;;5029823;28;20212;-82
2023/04/07 11:48:41;;;;;;;13.57;5.73;;;11.60;99.90;;;;;;5024164;28;20606;-82
2023/04/07 11:51:19;;;;;;;10.47;5.57;;;11.60;99.90;;;;;;5024054;28;20654;-82
2023/04/07 11:53:46;;;;;;;11.17;5.97;;;11.50;99.90;;;;;;5025355;28;20253;-82
2023/04/07 11:56:15;;;;;;;12.47;6.40;;;11.60;99.90;;;;;;5013152;28;20234;-82
2023/04/07 11:58:50;;;;;;;13.50;6.47;;;11.40;99.90;;;;;;5019985;28;20221;-82
2023/04/07 12:01:17;;;;;;;10.43;5.57;;;11.40;99.90;;;;;;5022347;28;20483;-82
2023/04/07 12:03:55;;;;;;;8.90;5.77;;;11.30;99.90;;;;;;5019316;28;20230;-84
2023/04/07 12:06:29;;;;;;;11.70;6.57;;;12.00;99.90;;;;;;5029654;28;20206;-83
2023/04/07 12:08:56;;;;;;;8.67;5.40;;;11.30;99.90;;;;;;5025981;28;20210;-84
2023/04/07 12:11:24;;;;;;;8.47;6.00;;;11.20;99.90;;;;;;5030173;28;20214;-83
2023/04/07 12:13:50;;;;;;;11.13;6.33;;;11.70;99.90;;;;;;5022426;28;20245;-83
2023/04/07 12:16:18;;;;;;;12.03;6.70;;;12.10;99.90;;;;;;5024550;28;20233;-82
2023/04/07 12:18:45;;;;;;;12.33;6.07;;;11.20;99.90;;;;;;5020499;28;20770;-82
2023/04/07 12:21:12;;;;;;;10.67;5.97;;;12.00;99.90;;;;;;5012887;28;20233;-81
2023/04/07 12:23:38;;;;;;;13.23;6.17;;;12.00;99.90;;;;;;5014295;28;20216;-82
2023/04/07 12:26:05;;;;;;;11.03;6.40;;;11.60;99.90;;;;;;5021126;28;20210;-82
2023/04/07 12:28:32;;;;;;;14.77;7.03;;;11.70;99.90;;;;;;5023504;28;20668;-83
2023/04/07 12:30:59;;;;;;;14.03;6.53;;;11.40;99.90;;;;;;5024367;28;20209;-82
2023/04/07 12:33:25;;;;;;;9.60;5.87;;;11.80;99.90;;;;;;5022740;28;20218;-83
2023/04/07 12:35:52;;;;;;;11.00;5.60;;;11.90;99.90;;;;;;5019521;28;20298;-82
2023/04/07 12:38:20;;;;;;;8.17;5.07;;;12.00;99.90;;;;;;5023998;28;20202;-82
2023/04/07 12:40:47;;;;;;;11.50;5.27;;;12.10;99.90;;;;;;5025396;28;20203;-82
2023/04/07 12:43:13;;;;;;;7.90;5.03;;;12.20;99.90;;;;;;5020459;28;20220;-83
2023/04/07 12:45:41;;;;;;;8.47;5.03;;;12.10;99.90;;;;;;5014825;28;20233;-83
2023/04/07 12:48:08;;;;;;;10.57;5.47;;;12.10;99.90;;;;;;5003412;28;20226;-82
2023/04/07 12:50:36;;;;;;;8.47;4.97;;;12.00;99.90;;;;;;5024039;28;20198;-82